sensor_id;sensor_type;location;lat;lon;timestamp;pressure;altitude;pressure_sealevel;temperature;humidity
22938;BME280;11634;42.734;23.298;2023-02-24T00:01:58;95290.47;;;7.83;100.00
22938;BME280;11634;42.734;23.298;2023-02-24T00:04:27;95323.22;;;7.84;100.00
22938;BME280;11634;42.734;23.298;2023-02-24T00:06:53;95312.38;;;7.90;100.00
22938;BME280;11634;42.734;23.298;2023-02-24T00:09:22;95295.91;;;7.80;100.00
22938;BME280;11634;42.734;23.298;2023-02-24T00:12:05;95301.31;;;7.88;100.00
22938;BME280;11634;42.734;23.298;2023-02-24T00:14:35;95309.22;;;7.86;100.00
22938;BME280;11634;42.734;23.298;2023-02-24T00:17:01;95286.84;;;7.74;100.00
22938;BME280;11634;42.734;23.298;2023-02-24T00:19:29;95308.38;;;7.86;100.00
22938;BME280;11634;42.734;23.298;2023-02-24T00:22:01;95274.94;;;7.72;100.00
22938;BME280;11634;42.734;23.298;2023-02-24T00:24:28;95310.53;;;7.92;100.00
22938;BME280;11634;42.734;23.298;2023-02-24T00:26:56;95305.78;;;7.86;100.00
22938;BME280;11634;42.734;23.298;2023-02-24T00:29:24;95300.34;;;7.78;100.00
22938;BME280;11634;42.734;23.298;2023-02-24T00:31:52;95296.84;;;7.79;100.00
22938;BME280;11634;42.734;23.298;2023-02-24T00:34:28;95295.66;;;7.83;100.00
22938;BME280;11634;42.734;23.298;2023-02-24T00:36:55;95284.72;;;7.79;100.00
22938;BME280;11634;42.734;23.298;2023-02-24T00:39:21;95304.16;;;7.96;100.00
22938;BME280;11634;42.734;23.298;2023-02-24T00:41:55;95278.31;;;7.61;100.00
22938;BME280;11634;42.734;23.298;2023-02-24T00:44:30;95278.81;;;7.77;100.00
22938;BME280;11634;42.734;23.298;2023-02-24T00:47:00;95290.47;;;7.83;100.00
22938;BME280;11634;42.734;23.298;2023-02-24T00:49:26;95280.72;;;7.75;100.00
22938;BME280;11634;42.734;23.298;2023-02-24T00:51:53;95286.72;;;7.76;100.00
22938;BME280;11634;42.734;23.298;2023-02-24T00:54:21;95266.22;;;7.62;100.00
22938;BME280;11634;42.734;23.298;2023-02-24T00:56:49;95297.06;;;7.65;100.00
22938;BME280;11634;42.734;23.298;2023-02-24T00:59:16;95285.66;;;7.78;100.00
22938;BME280;11634;42.734;23.298;2023-02-24T01:01:44;95280.22;;;7.70;100.00
22938;BME280;11634;42.734;23.298;2023-02-24T01:04:10;95289.53;;;7.62;100.00
22938;BME280;11634;42.734;23.298;2023-02-24T01:06:39;95264.81;;;7.58;100.00
22938;BME280;11634;42.734;23.298;2023-02-24T01:09:06;95240.66;;;7.58;100.00
22938;BME280;11634;42.734;23.298;2023-02-24T01:11:37;95236.78;;;7.52;100.00
22938;BME280;11634;42.734;23.298;2023-02-24T01:14:28;95247.59;;;7.46;100.00
22938;BME280;11634;42.734;23.298;2023-02-24T01:16:55;95246.66;;;7.47;100.00
22938;BME280;11634;42.734;23.298;2023-02-24T01:19:26;95251.97;;;7.46;100.00
22938;BME280;11634;42.734;23.298;2023-02-24T01:22:07;95239.16;;;7.44;100.00
22938;BME280;11634;42.734;23.298;2023-02-24T01:24:39;95233.34;;;7.41;100.00
22938;BME280;11634;42.734;23.298;2023-02-24T01:27:06;95218.75;;;7.40;100.00
22938;BME280;11634;42.734;23.298;2023-02-24T01:29:34;95232.75;;;7.48;100.00
22938;BME280;11634;42.734;23.298;2023-02-24T01:32:18;95231.13;;;7.36;100.00
22938;BME280;11634;42.734;23.298;2023-02-24T01:34:45;95233.13;;;7.44;100.00
22938;BME280;11634;42.734;23.298;2023-02-24T01:37:11;95240.31;;;7.40;100.00
22938;BME280;11634;42.734;23.298;2023-02-24T01:39:41;95240.75;;;7.34;100.00
22938;BME280;11634;42.734;23.298;2023-02-24T01:42:12;95242.91;;;7.40;100.00
22938;BME280;11634;42.734;23.298;2023-02-24T01:45:04;95201.34;;;7.20;100.00
22938;BME280;11634;42.734;23.298;2023-02-24T01:47:31;95256.41;;;7.44;100.00
22938;BME280;11634;42.734;23.298;2023-02-24T01:49:56;95240.19;;;7.42;100.00
22938;BME280;11634;42.734;23.298;2023-02-24T01:52:25;95245.81;;;7.36;100.00
22938;BME280;11634;42.734;23.298;2023-02-24T01:55:03;95237.59;;;7.31;100.00
22938;BME280;11634;42.734;23.298;2023-02-24T01:57:32;95245.22;;;7.21;100.00
22938;BME280;11634;42.734;23.298;2023-02-24T02:00:00;95241.91;;;7.19;100.00
22938;BME280;11634;42.734;23.298;2023-02-24T02:02:47;95218.03;;;7.16;100.00
22938;BME280;11634;42.734;23.298;2023-02-24T02:05:15;95232.03;;;7.24;100.00
22938;BME280;11634;42.734;23.298;2023-02-24T02:07:41;95233.91;;;7.22;100.00
22938;BME280;11634;42.734;23.298;2023-02-24T02:10:08;95214.03;;;7.12;100.00
22938;BME280;11634;42.734;23.298;2023-02-24T02:12:36;95229.31;;;7.15;100.00
22938;BME280;11634;42.734;23.298;2023-02-24T02:15:10;95226.81;;;7.03;100.00
22938;BME280;11634;42.734;23.298;2023-02-24T02:17:52;95233.53;;;7.05;100.00
22938;BME280;11634;42.734;23.298;2023-02-24T02:36:59;95232.66;;;6.94;100.00
22938;BME280;11634;42.734;23.298;2023-02-24T02:48:14;95247.59;;;6.90;100.00
22938;BME280;11634;42.734;23.298;2023-02-24T02:50:57;95255.91;;;6.83;100.00
22938;BME280;11634;42.734;23.298;2023-02-24T02:56:20;95218.75;;;6.73;100.00
22938;BME280;11634;42.734;23.298;2023-02-24T02:58:52;95218.28;;;6.79;100.00
22938;BME280;11634;42.734;23.298;2023-02-24T03:01:22;95223.00;;;6.74;100.00
22938;BME280;11634;42.734;23.298;2023-02-24T03:03:52;95223.91;;;6.73;100.00
22938;BME280;11634;42.734;23.298;2023-02-24T03:06:23;95232.97;;;6.78;100.00
22938;BME280;11634;42.734;23.298;2023-02-24T03:09:07;95239.47;;;6.84;100.00
22938;BME280;11634;42.734;23.298;2023-02-24T03:11:48;95236.25;;;6.80;100.00
22938;BME280;11634;42.734;23.298;2023-02-24T03:14:23;95220.81;;;6.68;100.00
22938;BME280;11634;42.734;23.298;2023-02-24T03:16:54;95224.00;;;6.60;100.00
22938;BME280;11634;42.734;23.298;2023-02-24T03:19:31;95238.34;;;6.64;100.00
22938;BME280;11634;42.734;23.298;2023-02-24T03:22:09;95200.19;;;6.45;100.00
22938;BME280;11634;42.734;23.298;2023-02-24T03:24:40;95236.69;;;6.63;100.00
22938;BME280;11634;42.734;23.298;2023-02-24T03:27:15;95233.19;;;6.64;100.00
22938;BME280;11634;42.734;23.298;2023-02-24T03:29:52;95234.69;;;6.67;100.00
22938;BME280;11634;42.734;23.298;2023-02-24T03:32:32;95232.94;;;6.67;100.00
22938;BME280;11634;42.734;23.298;2023-02-24T03:35:14;95223.19;;;6.71;100.00
22938;BME280;11634;42.734;23.298;2023-02-24T03:37:42;95241.28;;;6.71;100.00
22938;BME280;11634;42.734;23.298;2023-02-24T03:40:11;95231.41;;;6.65;100.00
22938;BME280;11634;42.734;23.298;2023-02-24T03:42:42;95226.13;;;6.66;100.00
22938;BME280;11634;42.734;23.298;2023-02-24T03:45:09;95228.47;;;6.69;100.00
22938;BME280;11634;42.734;23.298;2023-02-24T03:47:35;95229.47;;;6.56;100.00
22938;BME280;11634;42.734;23.298;2023-02-24T03:50:12;95236.34;;;6.68;100.00
22938;BME280;11634;42.734;23.298;2023-02-24T03:52:45;95239.03;;;6.66;100.00
22938;BME280;11634;42.734;23.298;2023-02-24T04:06:20;95198.47;;;6.33;100.00
22938;BME280;11634;42.734;23.298;2023-02-24T04:09:18;95236.47;;;6.66;100.00
22938;BME280;11634;42.734;23.298;2023-02-24T04:12:19;95234.81;;;6.65;100.00
22938;BME280;11634;42.734;23.298;2023-02-24T04:15:14;95227.88;;;6.66;100.00
22938;BME280;11634;42.734;23.298;2023-02-24T04:20:17;95231.28;;;6.66;100.00
22938;BME280;11634;42.734;23.298;2023-02-24T04:22:53;95236.34;;;6.68;100.00
22938;BME280;11634;42.734;23.298;2023-02-24T04:25:23;95223.81;;;6.74;100.00
22938;BME280;11634;42.734;23.298;2023-02-24T04:27:53;95232.00;;;6.68;100.00
22938;BME280;11634;42.734;23.298;2023-02-24T04:30:21;95212.56;;;6.63;100.00
22938;BME280;11634;42.734;23.298;2023-02-24T04:32:48;95194.44;;;6.52;100.00
22938;BME280;11634;42.734;23.298;2023-02-24T04:35:18;95216.00;;;6.63;100.00
22938;BME280;11634;42.734;23.298;2023-02-24T04:37:49;95217.81;;;6.74;100.00
22938;BME280;11634;42.734;23.298;2023-02-24T04:40:16;95213.56;;;6.73;100.00
22938;BME280;11634;42.734;23.298;2023-02-24T04:42:43;95210.00;;;6.63;100.00
22938;BME280;11634;42.734;23.298;2023-02-24T04:45:15;95219.28;;;6.65;100.00
22938;BME280;11634;42.734;23.298;2023-02-24T04:47:45;95209.56;;;6.69;100.00
22938;BME280;11634;42.734;23.298;2023-02-24T04:50:14;95221.09;;;6.76;100.00
22938;BME280;11634;42.734;23.298;2023-02-24T04:52:55;95226.28;;;6.76;100.00
22938;BME280;11634;42.734;23.298;2023-02-24T04:55:25;95216.75;;;6.76;100.00
22938;BME280;11634;42.734;23.298;2023-02-24T04:57:54;95205.53;;;6.65;100.00
22938;BME280;11634;42.734;23.298;2023-02-24T05:00:21;95217.34;;;6.80;100.00
22938;BME280;11634;42.734;23.298;2023-02-24T05:02:53;95216.53;;;6.79;100.00
22938;BME280;11634;42.734;23.298;2023-02-24T05:05:21;95218.78;;;6.84;100.00
22938;BME280;11634;42.734;23.298;2023-02-24T05:07:57;95202.72;;;6.68;100.00
22938;BME280;11634;42.734;23.298;2023-02-24T05:10:35;95207.91;;;6.68;100.00
22938;BME280;11634;42.734;23.298;2023-02-24T05:13:02;95182.25;;;6.54;100.00
22938;BME280;11634;42.734;23.298;2023-02-24T05:15:38;95209.81;;;6.77;100.00
22938;BME280;11634;42.734;23.298;2023-02-24T05:18:10;95215.81;;;6.77;100.00
22938;BME280;11634;42.734;23.298;2023-02-24T05:20:53;95207.25;;;6.77;100.00
22938;BME280;11634;42.734;23.298;2023-02-24T05:23:42;95228.16;;;6.74;100.00
22938;BME280;11634;42.734;23.298;2023-02-24T05:26:11;95214.97;;;6.66;100.00
22938;BME280;11634;42.734;23.298;2023-02-24T05:28:41;95212.16;;;6.69;100.00
22938;BME280;11634;42.734;23.298;2023-02-24T05:31:07;95218.34;;;6.66;100.00
22938;BME280;11634;42.734;23.298;2023-02-24T05:33:35;95206.81;;;6.59;100.00
22938;BME280;11634;42.734;23.298;2023-02-24T05:36:07;95193.84;;;6.49;100.00
22938;BME280;11634;42.734;23.298;2023-02-24T05:38:34;95172.69;;;6.44;100.00
22938;BME280;11634;42.734;23.298;2023-02-24T05:41:12;95210.69;;;6.54;100.00
22938;BME280;11634;42.734;23.298;2023-02-24T05:43:46;95203.09;;;6.40;100.00
22938;BME280;11634;42.734;23.298;2023-02-24T05:46:15;95196.44;;;6.49;100.00
22938;BME280;11634;42.734;23.298;2023-02-24T05:48:41;95199.13;;;6.47;100.00
22938;BME280;11634;42.734;23.298;2023-02-24T05:51:08;95194.81;;;6.58;100.00
22938;BME280;11634;42.734;23.298;2023-02-24T05:53:39;95192.81;;;6.51;100.00
22938;BME280;11634;42.734;23.298;2023-02-24T05:56:08;95198.34;;;6.57;100.00
22938;BME280;11634;42.734;23.298;2023-02-24T05:58:34;95206.00;;;6.59;100.00
22938;BME280;11634;42.734;23.298;2023-02-24T06:01:11;95200.91;;;6.57;100.00
22938;BME280;11634;42.734;23.298;2023-02-24T06:03:42;95214.22;;;6.64;100.00
22938;BME280;11634;42.734;23.298;2023-02-24T06:06:15;95221.88;;;6.65;100.00
22938;BME280;11634;42.734;23.298;2023-02-24T06:08:42;95190.78;;;6.44;100.00
22938;BME280;11634;42.734;23.298;2023-02-24T06:11:15;95221.53;;;6.59;100.00
22938;BME280;11634;42.734;23.298;2023-02-24T06:13:43;95211.34;;;6.68;100.00
22938;BME280;11634;42.734;23.298;2023-02-24T06:16:17;95224.19;;;6.81;100.00
22938;BME280;11634;42.734;23.298;2023-02-24T06:18:46;95215.38;;;6.60;100.00
22938;BME280;11634;42.734;23.298;2023-02-24T06:21:12;95211.19;;;6.59;100.00
22938;BME280;11634;42.734;23.298;2023-02-24T06:23:39;95222.91;;;6.63;100.00
22938;BME280;11634;42.734;23.298;2023-02-24T06:26:05;95211.38;;;6.56;100.00
22938;BME280;11634;42.734;23.298;2023-02-24T06:28:40;95232.84;;;6.69;100.00
22938;BME280;11634;42.734;23.298;2023-02-24T06:31:10;95232.84;;;6.69;100.00
22938;BME280;11634;42.734;23.298;2023-02-24T06:33:37;95236.84;;;6.73;100.00
22938;BME280;11634;42.734;23.298;2023-02-24T06:36:03;95223.91;;;6.73;100.00
22938;BME280;11634;42.734;23.298;2023-02-24T06:38:30;95231.72;;;6.84;100.00
22938;BME280;11634;42.734;23.298;2023-02-24T06:40:57;95219.56;;;6.73;100.00
22938;BME280;11634;42.734;23.298;2023-02-24T06:43:23;95235.09;;;6.84;100.00
22938;BME280;11634;42.734;23.298;2023-02-24T06:45:48;95216.38;;;6.70;100.00
22938;BME280;11634;42.734;23.298;2023-02-24T06:48:14;95230.28;;;6.80;100.00
22938;BME280;11634;42.734;23.298;2023-02-24T06:50:40;95230.00;;;6.72;100.00
22938;BME280;11634;42.734;23.298;2023-02-24T06:53:06;95213.94;;;6.79;100.00
22938;BME280;11634;42.734;23.298;2023-02-24T06:55:47;95213.06;;;6.68;100.00
22938;BME280;11634;42.734;23.298;2023-02-24T06:58:17;95209.56;;;6.69;100.00
22938;BME280;11634;42.734;23.298;2023-02-24T07:00:44;95216.97;;;6.73;100.00
22938;BME280;11634;42.734;23.298;2023-02-24T07:03:23;95205.53;;;6.65;100.00
22938;BME280;11634;42.734;23.298;2023-02-24T07:05:51;95218.75;;;6.73;100.00
22938;BME280;11634;42.734;23.298;2023-02-24T07:08:39;95206.41;;;6.76;100.00
22938;BME280;11634;42.734;23.298;2023-02-24T07:11:05;95201.72;;;6.81;100.00
22938;BME280;11634;42.734;23.298;2023-02-24T07:13:32;95204.56;;;6.89;100.00
22938;BME280;11634;42.734;23.298;2023-02-24T07:15:59;95221.88;;;7.00;100.00
22938;BME280;11634;42.734;23.298;2023-02-24T07:18:32;95209.66;;;7.02;100.00
22938;BME280;11634;42.734;23.298;2023-02-24T07:21:01;95213.03;;;7.02;100.00
22938;BME280;11634;42.734;23.298;2023-02-24T07:23:39;95205.91;;;7.06;100.00
22938;BME280;11634;42.734;23.298;2023-02-24T07:26:14;95214.28;;;7.20;100.00
22938;BME280;11634;42.734;23.298;2023-02-24T07:28:45;95222.25;;;7.17;100.00
22938;BME280;11634;42.734;23.298;2023-02-24T07:31:14;95213.19;;;7.11;100.00
22938;BME280;11634;42.734;23.298;2023-02-24T07:33:42;95213.41;;;7.08;100.00
22938;BME280;11634;42.734;23.298;2023-02-24T07:36:11;95215.56;;;7.14;100.00
22938;BME280;11634;42.734;23.298;2023-02-24T07:38:43;95221.09;;;7.21;100.00
22938;BME280;11634;42.734;23.298;2023-02-24T07:41:11;95224.53;;;7.32;100.00
22938;BME280;11634;42.734;23.298;2023-02-24T07:43:39;95234.88;;;7.32;100.00
22938;BME280;11634;42.734;23.298;2023-02-24T07:46:14;95206.59;;;7.07;100.00
22938;BME280;11634;42.734;23.298;2023-02-24T07:48:41;95161.16;;;6.93;100.00
22938;BME280;11634;42.734;23.298;2023-02-24T07:51:08;95223.13;;;7.50;100.00
22938;BME280;11634;42.734;23.298;2023-02-24T07:53:34;95202.66;;;7.36;100.00
22938;BME280;11634;42.734;23.298;2023-02-24T07:56:12;95195.94;;;7.23;100.00
22938;BME280;11634;42.734;23.298;2023-02-24T07:58:42;95198.16;;;7.27;100.00
22938;BME280;11634;42.734;23.298;2023-02-24T08:01:12;95213.25;;;7.44;100.00
22938;BME280;11634;42.734;23.298;2023-02-24T08:04:09;95199.00;;;7.39;100.00
22938;BME280;11634;42.734;23.298;2023-02-24T08:06:41;95207.13;;;7.45;100.00
22938;BME280;11634;42.734;23.298;2023-02-24T08:09:10;95209.38;;;7.61;100.00
22938;BME280;11634;42.734;23.298;2023-02-24T08:14:13;95210.31;;;7.60;100.00
22938;BME280;11634;42.734;23.298;2023-02-24T08:16:42;95187.56;;;7.41;100.00
22938;BME280;11634;42.734;23.298;2023-02-24T08:19:10;95201.81;;;7.58;100.00
22938;BME280;11634;42.734;23.298;2023-02-24T08:21:41;95184.28;;;7.50;100.00
22938;BME280;11634;42.734;23.298;2023-02-24T08:24:24;95214.44;;;7.73;100.00
22938;BME280;11634;42.734;23.298;2023-02-24T08:26:55;95161.09;;;7.60;100.00
22938;BME280;11634;42.734;23.298;2023-02-24T08:29:31;95209.22;;;7.95;100.00
22938;BME280;11634;42.734;23.298;2023-02-24T08:32:08;95213.81;;;8.13;100.00
22938;BME280;11634;42.734;23.298;2023-02-24T08:34:35;95206.13;;;8.12;100.00
22938;BME280;11634;42.734;23.298;2023-02-24T08:37:01;95222.53;;;8.23;100.00
22938;BME280;11634;42.734;23.298;2023-02-24T08:39:26;95203.91;;;8.07;100.00
22938;BME280;11634;42.734;23.298;2023-02-24T08:41:57;95210.16;;;8.16;100.00
22938;BME280;11634;42.734;23.298;2023-02-24T08:44:23;95197.41;;;8.23;100.00
22938;BME280;11634;42.734;23.298;2023-02-24T08:46:52;95202.31;;;8.37;100.00
22938;BME280;11634;42.734;23.298;2023-02-24T08:49:19;95218.06;;;8.56;100.00
22938;BME280;11634;42.734;23.298;2023-02-24T08:51:47;95217.06;;;8.68;100.00
22938;BME280;11634;42.734;23.298;2023-02-24T08:54:20;95195.50;;;8.68;100.00
22938;BME280;11634;42.734;23.298;2023-02-24T08:56:53;95220.28;;;8.92;100.00
22938;BME280;11634;42.734;23.298;2023-02-24T08:59:25;95223.56;;;9.34;100.00
22938;BME280;11634;42.734;23.298;2023-02-24T09:02:13;95194.88;;;9.16;100.00
22938;BME280;11634;42.734;23.298;2023-02-24T09:04:51;95195.00;;;9.14;100.00
22938;BME280;11634;42.734;23.298;2023-02-24T09:09:45;95214.78;;;9.26;100.00
22938;BME280;11634;42.734;23.298;2023-02-24T09:12:12;95216.66;;;9.44;100.00
22938;BME280;11634;42.734;23.298;2023-02-24T09:14:58;95218.28;;;9.45;100.00
22938;BME280;11634;42.734;23.298;2023-02-24T09:17:27;95209.47;;;9.57;100.00
22938;BME280;11634;42.734;23.298;2023-02-24T09:20:18;95222.00;;;10.02;100.00
22938;BME280;11634;42.734;23.298;2023-02-24T09:22:56;95239.56;;;10.10;100.00
22938;BME280;11634;42.734;23.298;2023-02-24T09:25:31;95227.50;;;10.09;100.00
22938;BME280;11634;42.734;23.298;2023-02-24T09:28:13;95214.91;;;10.72;100.00
22938;BME280;11634;42.734;23.298;2023-02-24T09:30:53;95217.75;;;11.25;100.00
22938;BME280;11634;42.734;23.298;2023-02-24T09:33:32;95216.81;;;11.17;100.00
22938;BME280;11634;42.734;23.298;2023-02-24T09:36:12;95219.66;;;11.61;100.00
22938;BME280;11634;42.734;23.298;2023-02-24T09:38:51;95222.84;;;11.17;100.00
22938;BME280;11634;42.734;23.298;2023-02-24T09:41:36;95219.94;;;11.39;100.00
22938;BME280;11634;42.734;23.298;2023-02-24T09:44:35;95212.25;;;11.38;100.00
22938;BME280;11634;42.734;23.298;2023-02-24T09:52:17;95200.81;;;12.12;100.00
22938;BME280;11634;42.734;23.298;2023-02-24T09:54:48;95213.88;;;12.30;100.00
22938;BME280;11634;42.734;23.298;2023-02-24T09:57:41;95178.91;;;11.96;100.00
22938;BME280;11634;42.734;23.298;2023-02-24T10:00:31;95173.84;;;11.85;100.00
22938;BME280;11634;42.734;23.298;2023-02-24T10:03:25;95187.13;;;12.01;100.00
22938;BME280;11634;42.734;23.298;2023-02-24T10:06:18;95159.72;;;11.88;100.00
22938;BME280;11634;42.734;23.298;2023-02-24T10:09:07;95113.66;;;11.79;100.00
22938;BME280;11634;42.734;23.298;2023-02-24T10:14:08;95143.09;;;12.15;100.00
22938;BME280;11634;42.734;23.298;2023-02-24T10:16:46;95134.38;;;12.07;100.00
22938;BME280;11634;42.734;23.298;2023-02-24T10:19:32;95125.34;;;12.02;100.00
22938;BME280;11634;42.734;23.298;2023-02-24T10:22:11;95157.94;;;11.88;100.00
22938;BME280;11634;42.734;23.298;2023-02-24T10:25:03;95162.38;;;11.33;100.00
22938;BME280;11634;42.734;23.298;2023-02-24T10:33:01;95142.50;;;11.77;100.00
22938;BME280;11634;42.734;23.298;2023-02-24T10:35:30;95137.47;;;11.66;100.00
22938;BME280;11634;42.734;23.298;2023-02-24T10:38:00;95136.69;;;11.38;100.00
22938;BME280;11634;42.734;23.298;2023-02-24T10:40:32;95120.91;;;11.48;100.00
22938;BME280;11634;42.734;23.298;2023-02-24T10:43:17;95117.94;;;11.70;100.00
22938;BME280;11634;42.734;23.298;2023-02-24T10:45:44;95105.19;;;12.21;100.00
22938;BME280;11634;42.734;23.298;2023-02-24T10:48:22;95107.03;;;12.46;100.00
22938;BME280;11634;42.734;23.298;2023-02-24T10:50:53;95103.16;;;12.67;100.00
22938;BME280;11634;42.734;23.298;2023-02-24T10:53:23;95097.88;;;12.76;100.00
22938;BME280;11634;42.734;23.298;2023-02-24T10:55:57;95091.16;;;12.74;100.00
22938;BME280;11634;42.734;23.298;2023-02-24T10:58:46;95083.38;;;12.30;100.00
22938;BME280;11634;42.734;23.298;2023-02-24T11:01:22;95050.34;;;11.86;100.00
22938;BME280;11634;42.734;23.298;2023-02-24T11:04:11;95080.78;;;12.30;100.00
22938;BME280;11634;42.734;23.298;2023-02-24T11:06:47;95074.66;;;12.04;100.00
22938;BME280;11634;42.734;23.298;2023-02-24T11:09:23;95079.97;;;12.29;100.00
22938;BME280;11634;42.734;23.298;2023-02-24T11:11:54;95070.19;;;12.49;100.00
22938;BME280;11634;42.734;23.298;2023-02-24T11:14:49;95071.09;;;13.17;100.00
22938;BME280;11634;42.734;23.298;2023-02-24T11:17:36;95058.94;;;13.33;100.00
22938;BME280;11634;42.734;23.298;2023-02-24T11:22:43;95058.13;;;13.41;99.93
22938;BME280;11634;42.734;23.298;2023-02-24T11:25:22;95048.25;;;12.94;100.00
22938;BME280;11634;42.734;23.298;2023-02-24T11:27:51;95041.00;;;12.88;100.00
22938;BME280;11634;42.734;23.298;2023-02-24T11:35:49;95038.06;;;12.31;100.00
22938;BME280;11634;42.734;23.298;2023-02-24T11:41:26;95023.25;;;12.74;100.00
22938;BME280;11634;42.734;23.298;2023-02-24T11:44:06;95010.19;;;12.31;100.00
22938;BME280;11634;42.734;23.298;2023-02-24T11:46:39;95005.63;;;12.33;100.00
22938;BME280;11634;42.734;23.298;2023-02-24T11:49:20;94974.88;;;12.19;100.00
22938;BME280;11634;42.734;23.298;2023-02-24T11:51:51;94994.22;;;12.52;100.00
22938;BME280;11634;42.734;23.298;2023-02-24T11:54:17;94982.94;;;12.51;100.00
22938;BME280;11634;42.734;23.298;2023-02-24T11:56:52;94981.81;;;12.54;100.00
22938;BME280;11634;42.734;23.298;2023-02-24T12:02:50;94984.41;;;12.11;100.00
22938;BME280;11634;42.734;23.298;2023-02-24T12:05:33;94974.19;;;12.17;100.00
22938;BME280;11634;42.734;23.298;2023-02-24T12:08:52;94982.47;;;12.30;100.00
22938;BME280;11634;42.734;23.298;2023-02-24T12:11:59;94978.09;;;12.81;100.00
22938;BME280;11634;42.734;23.298;2023-02-24T12:16:53;94974.34;;;13.09;100.00
22938;BME280;11634;42.734;23.298;2023-02-24T12:19:30;94959.47;;;13.02;100.00
22938;BME280;11634;42.734;23.298;2023-02-24T12:22:02;94949.25;;;12.65;100.00
22938;BME280;11634;42.734;23.298;2023-02-24T12:24:30;94953.09;;;12.54;100.00
22938;BME280;11634;42.734;23.298;2023-02-24T12:40:21;94944.00;;;12.15;100.00
22938;BME280;11634;42.734;23.298;2023-02-24T12:48:48;94909.59;;;11.59;100.00
22938;BME280;11634;42.734;23.298;2023-02-24T12:51:23;94931.22;;;11.52;100.00
22938;BME280;11634;42.734;23.298;2023-02-24T12:56:24;94925.69;;;11.72;100.00
22938;BME280;11634;42.734;23.298;2023-02-24T12:58:58;94928.53;;;11.96;100.00
22938;BME280;11634;42.734;23.298;2023-02-24T13:04:27;94900.88;;;12.28;100.00
22938;BME280;11634;42.734;23.298;2023-02-24T13:09:52;94897.72;;;12.17;100.00
22938;BME280;11634;42.734;23.298;2023-02-24T13:15:20;94889.09;;;11.47;100.00
22938;BME280;11634;42.734;23.298;2023-02-24T13:17:48;94877.97;;;11.54;100.00
22938;BME280;11634;42.734;23.298;2023-02-24T13:22:50;94894.56;;;11.53;100.00
22938;BME280;11634;42.734;23.298;2023-02-24T13:25:18;94870.16;;;11.54;100.00
22938;BME280;11634;42.734;23.298;2023-02-24T13:27:56;94876.72;;;11.58;100.00
22938;BME280;11634;42.734;23.298;2023-02-24T13:33:06;94867.84;;;11.51;100.00
22938;BME280;11634;42.734;23.298;2023-02-24T13:36:09;94853.31;;;11.49;100.00
22938;BME280;11634;42.734;23.298;2023-02-24T13:38:45;94853.81;;;11.70;100.00
22938;BME280;11634;42.734;23.298;2023-02-24T13:47:19;94868.19;;;11.91;100.00
22938;BME280;11634;42.734;23.298;2023-02-24T13:56:20;94878.75;;;11.90;100.00
22938;BME280;11634;42.734;23.298;2023-02-24T14:01:20;94856.06;;;11.65;100.00
22938;BME280;11634;42.734;23.298;2023-02-24T14:04:04;94854.09;;;12.02;100.00
22938;BME280;11634;42.734;23.298;2023-02-24T14:06:34;94877.06;;;12.56;100.00
22938;BME280;11634;42.734;23.298;2023-02-24T14:09:02;94883.97;;;12.91;100.00
22938;BME280;11634;42.734;23.298;2023-02-24T14:11:33;94873.78;;;13.21;100.00
22938;BME280;11634;42.734;23.298;2023-02-24T14:13:59;94880.16;;;13.18;100.00
22938;BME280;11634;42.734;23.298;2023-02-24T14:16:28;94871.09;;;12.97;100.00
22938;BME280;11634;42.734;23.298;2023-02-24T14:18:59;94884.84;;;12.99;100.00
22938;BME280;11634;42.734;23.298;2023-02-24T14:21:30;94873.28;;;13.17;100.00
22938;BME280;11634;42.734;23.298;2023-02-24T14:24:10;94873.13;;;13.19;100.00
22938;BME280;11634;42.734;23.298;2023-02-24T14:26:47;94868.69;;;13.12;100.00
22938;BME280;11634;42.734;23.298;2023-02-24T14:29:23;94874.41;;;13.15;100.00
22938;BME280;11634;42.734;23.298;2023-02-24T14:31:53;94885.22;;;13.20;100.00
22938;BME280;11634;42.734;23.298;2023-02-24T14:34:24;94866.09;;;13.12;100.00
22938;BME280;11634;42.734;23.298;2023-02-24T14:36:53;94874.53;;;13.06;100.00
22938;BME280;11634;42.734;23.298;2023-02-24T14:41:48;94860.50;;;13.07;100.00
22938;BME280;11634;42.734;23.298;2023-02-24T14:44:24;94879.78;;;13.06;100.00
22938;BME280;11634;42.734;23.298;2023-02-24T14:46:52;94870.47;;;13.11;100.00
22938;BME280;11634;42.734;23.298;2023-02-24T14:51:53;94855.81;;;13.18;100.00
22938;BME280;11634;42.734;23.298;2023-02-24T14:57:04;94857.78;;;13.24;100.00
22938;BME280;11634;42.734;23.298;2023-02-24T14:59:33;94865.84;;;13.38;100.00
22938;BME280;11634;42.734;23.298;2023-02-24T15:02:02;94872.38;;;13.34;100.00
22938;BME280;11634;42.734;23.298;2023-02-24T15:04:36;94868.59;;;13.29;100.00
22938;BME280;11634;42.734;23.298;2023-02-24T15:07:06;94865.00;;;13.22;100.00
22938;BME280;11634;42.734;23.298;2023-02-24T15:09:40;94854.81;;;13.03;100.00
22938;BME280;11634;42.734;23.298;2023-02-24T15:14:47;94844.75;;;12.83;100.00
22938;BME280;11634;42.734;23.298;2023-02-24T15:17:17;94846.03;;;12.79;100.00
22938;BME280;11634;42.734;23.298;2023-02-24T15:19:44;94860.69;;;12.72;100.00
22938;BME280;11634;42.734;23.298;2023-02-24T15:22:32;94855.28;;;12.65;100.00
22938;BME280;11634;42.734;23.298;2023-02-24T15:25:15;94849.16;;;12.49;100.00
22938;BME280;11634;42.734;23.298;2023-02-24T15:28:28;94856.09;;;12.41;100.00
22938;BME280;11634;42.734;23.298;2023-02-24T15:31:17;94839.53;;;12.24;100.00
22938;BME280;11634;42.734;23.298;2023-02-24T15:33:52;94845.47;;;12.34;100.00
22938;BME280;11634;42.734;23.298;2023-02-24T15:36:24;94834.94;;;12.18;100.00